Time;durP1;ratioP1;P1;durP2;ratioP2;P2;SDS_P1;SDS_P2;PMS_P1;PMS_P2;Temp;Humidity;BMP_temperature;BMP_pressure;BME280_temperature;BME280_humidity;BME280_pressure;Samples;Min_cycle;Max_cycle;Signal;HPM_P1;HPM_P2
2022/08/05 00:02:07;;;;;;;4.28;2.72;;;25.00;64.30;;;;;;4938217;29;20044;-70
2022/08/05 00:04:33;;;;;;;2.55;2.25;;;24.90;64.50;;;;;;4948393;29;20035;-70
2022/08/05 00:06:59;;;;;;;5.68;2.28;;;24.80;64.80;;;;;;4945907;29;20764;-71
2022/08/05 00:09:25;;;;;;;4.30;2.30;;;24.80;65.50;;;;;;4945584;29;20035;-70
2022/08/05 00:11:51;;;;;;;4.32;2.33;;;24.80;65.80;;;;;;4945029;28;20094;-70
2022/08/05 00:14:16;;;;;;;3.17;2.53;;;24.70;66.20;;;;;;4942031;29;20032;-70
2022/08/05 00:16:43;;;;;;;4.13;2.28;;;24.70;66.70;;;;;;4943212;28;20032;-71
2022/08/05 00:19:08;;;;;;;5.30;2.50;;;24.70;67.20;;;;;;4942543;29;20046;-70
2022/08/05 00:21:34;;;;;;;4.43;2.70;;;24.60;67.60;;;;;;4941100;28;20027;-70
2022/08/05 00:24:00;;;;;;;2.97;2.45;;;24.60;67.90;;;;;;4947759;28;20476;-70
2022/08/05 00:26:26;;;;;;;5.22;2.70;;;24.60;68.00;;;;;;4946388;29;20039;-72
2022/08/05 00:28:51;;;;;;;4.03;2.80;;;24.60;68.90;;;;;;4943446;29;20038;-70
2022/08/05 00:31:18;;;;;;;5.82;2.67;;;24.60;69.00;;;;;;4942722;29;20411;-71
2022/08/05 00:33:43;;;;;;;3.92;2.40;;;24.60;69.20;;;;;;4941907;29;20388;-71
2022/08/05 00:36:09;;;;;;;4.32;2.80;;;24.60;69.30;;;;;;4939956;29;20038;-71
2022/08/05 00:38:35;;;;;;;3.97;3.03;;;24.70;69.30;;;;;;4941958;29;20563;-71
2022/08/05 00:41:01;;;;;;;4.57;2.88;;;24.60;69.40;;;;;;4940882;28;20039;-71
2022/08/05 00:43:29;;;;;;;3.47;2.63;;;24.60;69.30;;;;;;4946561;28;20063;-70
2022/08/05 00:45:55;;;;;;;3.95;2.80;;;24.60;69.40;;;;;;4943619;29;20039;-70
2022/08/05 00:48:22;;;;;;;6.38;3.30;;;24.60;69.60;;;;;;4943750;29;20035;-70
2022/08/05 00:50:50;;;;;;;5.18;3.10;;;24.60;69.70;;;;;;4946078;28;20034;-70
2022/08/05 00:53:18;;;;;;;3.40;2.70;;;24.50;70.00;;;;;;4942546;28;20110;-70
2022/08/05 00:55:44;;;;;;;9.10;3.45;;;24.50;70.20;;;;;;4941614;28;20031;-70
2022/08/05 00:58:11;;;;;;;5.22;3.03;;;24.50;70.50;;;;;;4938192;29;20046;-71
2022/08/05 01:00:38;;;;;;;7.57;3.10;;;24.50;70.60;;;;;;4944346;28;20027;-70
2022/08/05 01:03:04;;;;;;;3.30;3.00;;;24.40;70.80;;;;;;4946174;28;20079;-70
2022/08/05 01:05:29;;;;;;;4.18;3.40;;;24.40;70.90;;;;;;4945316;29;20058;-70
2022/08/05 01:07:55;;;;;;;4.40;3.00;;;24.40;71.00;;;;;;4943864;28;20031;-70
2022/08/05 01:10:27;;;;;;;6.68;3.35;;;24.40;71.20;;;;;;4944194;28;20044;-70
2022/08/05 01:13:01;;;;;;;5.53;3.20;;;24.40;71.30;;;;;;4943281;28;20050;-70
2022/08/05 01:15:33;;;;;;;5.38;3.50;;;24.30;71.60;;;;;;4940796;29;20039;-70
2022/08/05 01:18:11;;;;;;;6.00;3.50;;;24.30;71.70;;;;;;4937321;28;20043;-71
2022/08/05 01:21:06;;;;;;;6.05;3.58;;;24.30;71.90;;;;;;4944180;29;20038;-70
2022/08/05 01:23:38;;;;;;;5.55;3.15;;;24.30;71.80;;;;;;4942455;28;20043;-70
2022/08/05 01:26:17;;;;;;;3.20;2.90;;;24.30;71.90;;;;;;4943263;29;20023;-70
2022/08/05 01:28:55;;;;;;;4.97;3.60;;;24.20;72.20;;;;;;4943191;29;20039;-70
2022/08/05 01:31:38;;;;;;;3.13;2.90;;;24.20;72.40;;;;;;4940767;29;20451;-71
2022/08/05 01:34:30;;;;;;;5.75;3.55;;;24.20;72.70;;;;;;4937794;29;20480;-71
2022/08/05 01:37:07;;;;;;;5.22;3.50;;;24.10;72.90;;;;;;4901194;29;20050;-70
2022/08/05 01:39:36;;;;;;;4.28;3.40;;;24.00;73.00;;;;;;4946553;29;20043;-70
2022/08/05 01:42:04;;;;;;;3.45;3.15;;;24.00;73.30;;;;;;4941436;28;20079;-70
2022/08/05 01:44:30;;;;;;;3.40;3.10;;;24.00;73.80;;;;;;4944250;29;20058;-70
2022/08/05 01:46:58;;;;;;;5.20;3.70;;;23.90;73.90;;;;;;4942338;28;20307;-70
2022/08/05 01:49:26;;;;;;;9.00;3.60;;;23.90;74.20;;;;;;4939678;29;20043;-71
2022/08/05 01:52:00;;;;;;;5.15;3.50;;;23.90;74.30;;;;;;4940598;28;20039;-70
2022/08/05 01:54:38;;;;;;;3.30;3.00;;;23.90;74.40;;;;;;4939943;28;20097;-71
2022/08/05 01:57:05;;;;;;;4.63;3.30;;;23.80;74.50;;;;;;4943202;29;20035;-71
2022/08/05 01:59:33;;;;;;;4.80;3.60;;;23.80;74.60;;;;;;4942392;29;20035;-71
2022/08/05 02:02:01;;;;;;;3.63;3.33;;;23.80;74.60;;;;;;4943704;28;20121;-71
2022/08/05 02:04:29;;;;;;;4.03;3.58;;;23.80;74.80;;;;;;4942874;29;20035;-71
2022/08/05 02:06:56;;;;;;;3.35;3.03;;;23.80;74.90;;;;;;4941561;28;20027;-70
2022/08/05 02:09:22;;;;;;;5.15;3.40;;;23.70;74.90;;;;;;4940413;29;20054;-70
2022/08/05 02:12:06;;;;;;;3.78;3.30;;;23.70;75.00;;;;;;4939090;29;20480;-70
2022/08/05 02:14:59;;;;;;;5.13;3.47;;;23.70;75.90;;;;;;4939078;29;20031;-71
2022/08/05 02:17:37;;;;;;;7.68;3.72;;;23.60;75.30;;;;;;4945253;29;20109;-70
2022/08/05 02:20:06;;;;;;;4.97;3.47;;;23.60;75.50;;;;;;4942086;29;20035;-71
2022/08/05 02:22:38;;;;;;;5.00;3.40;;;23.60;75.60;;;;;;4942525;28;20035;-70
2022/08/05 02:25:11;;;;;;;4.45;3.70;;;23.60;75.80;;;;;;4940631;28;20502;-71
2022/08/05 02:27:39;;;;;;;5.50;3.50;;;23.50;76.00;;;;;;4940819;29;20027;-70
2022/08/05 02:30:07;;;;;;;6.28;3.55;;;23.50;76.20;;;;;;4937640;28;20151;-70
2022/08/05 02:32:34;;;;;;;5.20;3.85;;;23.50;76.50;;;;;;4939011;28;20102;-70
2022/08/05 02:35:04;;;;;;;3.80;3.35;;;23.40;76.70;;;;;;4938862;28;20446;-70
2022/08/05 02:37:32;;;;;;;4.45;3.47;;;23.40;76.60;;;;;;4944763;29;20034;-70
2022/08/05 02:40:01;;;;;;;6.43;3.40;;;23.30;76.90;;;;;;4943522;28;20043;-70
2022/08/05 02:42:27;;;;;;;4.22;3.78;;;23.30;77.20;;;;;;4942049;28;20063;-70
2022/08/05 02:44:55;;;;;;;5.55;3.92;;;23.30;77.30;;;;;;4941238;28;20039;-70
2022/08/05 02:47:24;;;;;;;6.97;3.92;;;23.30;77.50;;;;;;4939653;29;20084;-70
2022/08/05 02:49:51;;;;;;;5.30;3.30;;;23.30;77.80;;;;;;4938682;29;20042;-71
2022/08/05 02:52:18;;;;;;;4.07;3.53;;;23.20;77.80;;;;;;4936673;29;20064;-70
2022/08/05 02:54:45;;;;;;;3.90;3.50;;;23.20;77.90;;;;;;4945801;29;20104;-70
2022/08/05 02:57:13;;;;;;;4.75;3.50;;;23.20;78.00;;;;;;4943819;29;20861;-70
2022/08/05 02:59:42;;;;;;;4.93;3.75;;;23.20;78.10;;;;;;4943924;29;20035;-71
2022/08/05 03:02:10;;;;;;;3.70;3.40;;;23.20;78.30;;;;;;4940446;28;20058;-71
2022/08/05 03:04:37;;;;;;;3.95;3.65;;;23.20;78.30;;;;;;4941373;29;20149;-70
2022/08/05 03:07:03;;;;;;;6.78;3.40;;;23.10;78.40;;;;;;4937786;29;20039;-69
2022/08/05 03:09:29;;;;;;;3.45;2.95;;;23.10;78.50;;;;;;4938901;29;20551;-70
2022/08/05 03:11:55;;;;;;;4.32;3.47;;;23.10;78.50;;;;;;4938398;28;20032;-70
2022/08/05 03:14:21;;;;;;;4.78;3.63;;;23.10;78.60;;;;;;4944652;28;20032;-69
2022/08/05 03:16:47;;;;;;;3.67;3.30;;;23.10;78.60;;;;;;4944078;29;20027;-71
2022/08/05 03:19:12;;;;;;;3.75;3.15;;;23.10;78.60;;;;;;4941567;28;20071;-70
2022/08/05 03:21:38;;;;;;;3.67;3.17;;;23.10;78.60;;;;;;4941674;29;20027;-70
2022/08/05 03:24:05;;;;;;;4.20;3.80;;;23.10;78.80;;;;;;4943492;28;20157;-70
2022/08/05 03:26:31;;;;;;;4.20;3.55;;;23.00;78.90;;;;;;4939731;29;20600;-70
2022/08/05 03:28:57;;;;;;;4.20;3.40;;;23.00;78.90;;;;;;4936417;29;20043;-71
2022/08/05 03:31:25;;;;;;;4.88;3.20;;;23.00;79.00;;;;;;4940920;29;20562;-71
2022/08/05 03:33:51;;;;;;;5.00;3.47;;;23.00;79.10;;;;;;4944865;28;20114;-70
2022/08/05 03:36:17;;;;;;;4.03;3.55;;;22.90;79.20;;;;;;4946128;29;20101;-70
2022/08/05 03:38:42;;;;;;;4.03;3.60;;;22.90;79.30;;;;;;4946452;29;20035;-70
2022/08/05 03:41:08;;;;;;;6.07;3.50;;;22.90;79.40;;;;;;4943322;28;20043;-70
2022/08/05 03:43:34;;;;;;;6.22;2.90;;;22.90;79.40;;;;;;4943736;28;20039;-70
2022/08/05 03:46:01;;;;;;;4.50;3.30;;;22.90;79.60;;;;;;4940728;28;20035;-70
2022/08/05 03:48:28;;;;;;;3.90;3.50;;;22.90;79.60;;;;;;4941164;29;20027;-70
2022/08/05 03:51:11;;;;;;;7.68;3.65;;;22.90;79.60;;;;;;4948877;29;20090;-71
2022/08/05 03:53:42;;;;;;;3.50;3.20;;;22.90;79.80;;;;;;4944773;28;20082;-70
2022/08/05 03:56:21;;;;;;;3.65;3.35;;;22.90;79.80;;;;;;4944881;28;20039;-70
2022/08/05 03:58:49;;;;;;;4.65;2.95;;;22.90;79.70;;;;;;4943689;28;20451;-70
2022/08/05 04:01:18;;;;;;;4.00;3.40;;;22.90;79.80;;;;;;4941932;29;20035;-71
2022/08/05 04:03:47;;;;;;;6.32;3.60;;;22.90;79.80;;;;;;4942636;28;20051;-70
2022/08/05 04:06:16;;;;;;;4.32;3.85;;;22.90;80.00;;;;;;4939601;29;20040;-70
2022/08/05 04:08:42;;;;;;;4.60;3.60;;;22.90;80.00;;;;;;4945173;28;20191;-70
2022/08/05 04:11:09;;;;;;;7.78;3.72;;;23.00;80.10;;;;;;4947030;28;20031;-70
2022/08/05 04:13:39;;;;;;;7.70;3.35;;;23.00;80.00;;;;;;4946761;28;20031;-69
2022/08/05 04:16:07;;;;;;;3.75;3.40;;;23.10;80.00;;;;;;4943990;28;20039;-70
2022/08/05 04:18:33;;;;;;;3.47;3.17;;;23.10;80.00;;;;;;4945524;29;20031;-71
2022/08/05 04:20:59;;;;;;;4.70;3.45;;;23.10;79.90;;;;;;4944056;28;20138;-71
2022/08/05 04:23:26;;;;;;;3.80;3.50;;;23.20;80.00;;;;;;4944366;28;20192;-70
2022/08/05 04:25:52;;;;;;;5.40;3.60;;;23.20;79.90;;;;;;4938642;28;20031;-70
2022/08/05 04:28:19;;;;;;;5.72;3.42;;;23.30;79.80;;;;;;4946506;29;20673;-69
2022/08/05 04:30:46;;;;;;;5.85;3.97;;;23.30;79.50;;;;;;4947577;29;20055;-71
2022/08/05 04:33:13;;;;;;;4.38;3.58;;;23.50;79.30;;;;;;4945918;28;20031;-70
2022/08/05 04:35:40;;;;;;;5.03;3.50;;;23.60;79.20;;;;;;4945124;29;20079;-71
2022/08/05 04:38:06;;;;;;;4.68;3.35;;;23.70;79.00;;;;;;4941633;28;20039;-70
2022/08/05 04:40:35;;;;;;;5.20;3.55;;;23.80;78.50;;;;;;4942792;29;20552;-71
2022/08/05 04:43:02;;;;;;;5.00;3.63;;;23.90;78.40;;;;;;4938877;28;20046;-70
2022/08/05 04:45:28;;;;;;;5.65;3.80;;;23.90;78.40;;;;;;4939547;29;20054;-69
2022/08/05 04:47:53;;;;;;;3.97;3.22;;;24.00;78.30;;;;;;4947661;29;20503;-70
2022/08/05 04:50:19;;;;;;;4.90;3.55;;;24.10;77.70;;;;;;4945810;28;20400;-70
2022/08/05 04:52:45;;;;;;;4.38;3.28;;;24.20;77.80;;;;;;4945296;28;20408;-70
2022/08/05 04:55:11;;;;;;;4.85;3.67;;;24.20;77.40;;;;;;4942214;28;20042;-70
2022/08/05 04:57:37;;;;;;;3.65;3.25;;;24.30;77.20;;;;;;4943409;29;20051;-70
2022/08/05 05:00:05;;;;;;;5.75;3.40;;;24.40;77.10;;;;;;4939915;28;20042;-70
2022/08/05 05:02:31;;;;;;;5.10;3.30;;;24.40;77.40;;;;;;4940100;29;20031;-68
2022/08/05 05:04:56;;;;;;;3.60;3.30;;;24.40;76.80;;;;;;4940339;28;20043;-67
2022/08/05 05:07:22;;;;;;;3.50;3.20;;;24.50;76.40;;;;;;4946266;28;20095;-68
2022/08/05 05:09:48;;;;;;;5.95;2.95;;;24.50;76.20;;;;;;4945997;29;20420;-67
2022/08/05 05:12:13;;;;;;;4.88;3.35;;;24.50;76.40;;;;;;4942927;28;20036;-68
2022/08/05 05:14:39;;;;;;;4.43;3.60;;;24.50;76.40;;;;;;4943941;29;20035;-69
2022/08/05 05:17:05;;;;;;;5.07;3.22;;;24.50;76.40;;;;;;4940204;29;20111;-69
2022/08/05 05:19:31;;;;;;;4.72;3.20;;;24.60;76.10;;;;;;4945114;28;20035;-69
2022/08/05 05:21:56;;;;;;;3.28;2.90;;;24.70;76.10;;;;;;4938344;28;20042;-68
2022/08/05 05:24:22;;;;;;;5.07;3.35;;;24.70;76.10;;;;;;4942505;29;20098;-68
2022/08/05 05:26:48;;;;;;;5.63;3.03;;;24.80;76.00;;;;;;4946171;29;20035;-68
2022/08/05 05:29:13;;;;;;;3.85;2.97;;;24.80;75.70;;;;;;4943994;28;20070;-68
2022/08/05 05:31:39;;;;;;;4.38;3.35;;;24.90;76.10;;;;;;4943704;29;20067;-69
2022/08/05 05:34:05;;;;;;;3.45;3.15;;;24.90;75.80;;;;;;4940721;28;20063;-69
2022/08/05 05:36:31;;;;;;;5.75;3.30;;;24.90;75.60;;;;;;4941944;29;20027;-68
2022/08/05 05:38:56;;;;;;;3.47;2.92;;;24.90;75.40;;;;;;4939302;28;20701;-68
2022/08/05 05:41:22;;;;;;;4.28;3.05;;;24.90;75.20;;;;;;4938977;29;20054;-68
2022/08/05 05:43:48;;;;;;;3.42;2.80;;;24.90;75.60;;;;;;4943032;29;20050;-68
2022/08/05 05:46:13;;;;;;;5.47;2.88;;;24.90;75.80;;;;;;4945549;29;20797;-68
2022/08/05 05:48:42;;;;;;;6.60;2.92;;;24.90;76.80;;;;;;4944799;29;20035;-68
2022/08/05 05:51:08;;;;;;;5.18;2.55;;;24.90;76.00;;;;;;4941870;28;20027;-68
2022/08/05 05:53:34;;;;;;;5.65;2.53;;;24.80;76.20;;;;;;4942455;28;20451;-68
2022/08/05 05:55:59;;;;;;;5.75;2.72;;;24.90;76.70;;;;;;4939099;28;20076;-68
2022/08/05 05:58:25;;;;;;;3.85;2.70;;;24.90;76.60;;;;;;4940127;28;20046;-68
2022/08/05 06:00:51;;;;;;;5.75;2.92;;;24.90;76.70;;;;;;4937239;29;20043;-68
2022/08/05 06:03:17;;;;;;;8.95;4.57;;;25.00;76.70;;;;;;4943996;28;20059;-68
2022/08/05 06:05:42;;;;;;;7.35;5.15;;;25.00;77.40;;;;;;4945316;29;20463;-67
2022/08/05 06:08:09;;;;;;;11.05;6.03;;;24.90;77.20;;;;;;4942611;29;20043;-68
2022/08/05 06:10:35;;;;;;;9.07;6.15;;;24.80;77.60;;;;;;4943175;29;20430;-68
2022/08/05 06:13:01;;;;;;;15.85;6.90;;;24.80;78.10;;;;;;4939820;28;20031;-68
2022/08/05 06:15:27;;;;;;;10.88;6.10;;;24.80;78.20;;;;;;4940373;29;20126;-68
2022/08/05 06:17:53;;;;;;;14.55;5.80;;;24.80;78.60;;;;;;4937691;29;20109;-68
2022/08/05 06:20:18;;;;;;;10.65;5.43;;;24.80;78.80;;;;;;4940890;29;20555;-68
2022/08/05 06:22:44;;;;;;;6.93;4.30;;;24.80;79.00;;;;;;4945431;28;20046;-68
2022/08/05 06:25:12;;;;;;;6.68;3.90;;;25.00;78.80;;;;;;4943428;28;20055;-68
2022/08/05 06:27:37;;;;;;;5.72;3.70;;;25.00;78.60;;;;;;4945332;29;20045;-68
2022/08/05 06:30:04;;;;;;;5.57;3.50;;;25.10;78.90;;;;;;4942763;28;20035;-68
2022/08/05 06:32:30;;;;;;;5.18;3.10;;;25.20;78.10;;;;;;4941319;29;20664;-68
2022/08/05 06:34:57;;;;;;;9.00;2.90;;;25.40;77.70;;;;;;4938935;28;20031;-68
2022/08/05 06:37:27;;;;;;;4.15;3.05;;;25.50;77.10;;;;;;4938390;29;20039;-68
2022/08/05 06:39:52;;;;;;;3.55;2.72;;;25.50;76.40;;;;;;4941207;29;20061;-68
2022/08/05 06:42:18;;;;;;;4.90;3.22;;;25.60;76.40;;;;;;4944262;28;20614;-68
2022/08/05 06:44:44;;;;;;;4.72;2.90;;;25.60;76.50;;;;;;4944403;29;20086;-68
2022/08/05 06:47:09;;;;;;;4.22;2.90;;;25.50;76.80;;;;;;4940932;28;20171;-67
2022/08/05 06:49:36;;;;;;;4.32;3.22;;;25.50;76.90;;;;;;4942300;29;20047;-68
2022/08/05 06:52:02;;;;;;;8.52;3.25;;;25.50;76.90;;;;;;4938589;29;20040;-68
2022/08/05 06:54:27;;;;;;;6.85;3.25;;;25.40;77.00;;;;;;4939716;29;20032;-68
2022/08/05 06:56:53;;;;;;;5.40;3.40;;;25.40;77.30;;;;;;4936986;28;20039;-68
2022/08/05 06:59:19;;;;;;;6.40;3.28;;;25.30;77.30;;;;;;4944539;29;20039;-68
2022/08/05 07:01:44;;;;;;;6.45;3.15;;;25.30;78.40;;;;;;4944806;29;20035;-68
2022/08/05 07:04:10;;;;;;;5.68;2.85;;;25.20;77.80;;;;;;4942597;28;20039;-68
2022/08/05 07:06:36;;;;;;;9.35;3.30;;;25.20;78.10;;;;;;4942560;28;20063;-67
2022/08/05 07:09:03;;;;;;;5.88;3.10;;;25.10;77.70;;;;;;4940581;28;20035;-68
2022/08/05 07:11:29;;;;;;;4.85;3.05;;;25.10;77.80;;;;;;4944037;29;20035;-68
2022/08/05 07:16:49;;;;;;;4.80;2.60;;;25.10;77.80;;;;;;4943525;29;20567;-68
2022/08/05 07:19:20;;;;;;;6.07;3.07;;;25.00;78.10;;;;;;4948190;28;20047;-67
2022/08/05 07:21:47;;;;;;;4.65;2.75;;;24.90;78.20;;;;;;4947787;29;20331;-68
2022/08/05 07:24:14;;;;;;;6.00;3.05;;;24.90;78.40;;;;;;4945164;28;20150;-69
2022/08/05 07:26:40;;;;;;;5.22;3.30;;;24.80;78.60;;;;;;4948063;28;20071;-68
2022/08/05 07:29:07;;;;;;;7.13;3.28;;;24.80;79.10;;;;;;4942372;28;20039;-68
2022/08/05 07:31:33;;;;;;;5.50;3.20;;;24.80;79.50;;;;;;4943095;29;20027;-68
2022/08/05 07:33:59;;;;;;;3.60;3.00;;;24.70;79.50;;;;;;4938220;29;20134;-68
2022/08/05 07:36:26;;;;;;;4.28;2.95;;;24.70;79.80;;;;;;4944699;29;20138;-68
2022/08/05 07:38:52;;;;;;;5.55;3.80;;;24.70;80.50;;;;;;4948355;29;20038;-68
2022/08/05 07:41:20;;;;;;;6.57;4.00;;;24.60;81.80;;;;;;4946294;29;20044;-68
2022/08/05 07:43:46;;;;;;;6.30;3.70;;;24.50;82.80;;;;;;4946017;28;20808;-68
2022/08/05 07:46:12;;;;;;;5.10;3.95;;;24.50;83.20;;;;;;4944736;28;20046;-68
2022/08/05 07:48:38;;;;;;;8.60;4.63;;;24.40;84.30;;;;;;4944012;29;20392;-67
2022/08/05 07:51:04;;;;;;;7.65;3.78;;;24.40;85.30;;;;;;4940204;28;20039;-68
2022/08/05 07:53:30;;;;;;;5.30;4.43;;;24.30;85.90;;;;;;4941525;29;20167;-68
2022/08/05 07:55:56;;;;;;;6.05;3.42;;;24.20;86.50;;;;;;4945458;28;20081;-66
2022/08/05 07:58:21;;;;;;;7.00;3.60;;;24.20;86.40;;;;;;4946917;28;20039;-68
2022/08/05 08:00:48;;;;;;;6.18;4.30;;;24.10;86.40;;;;;;4946515;29;20042;-68
2022/08/05 08:03:14;;;;;;;9.52;3.88;;;24.10;87.80;;;;;;4943580;28;20042;-68
2022/08/05 08:05:42;;;;;;;4.45;3.05;;;24.20;87.80;;;;;;4945749;28;20111;-68
2022/08/05 08:08:09;;;;;;;6.75;3.80;;;24.20;87.10;;;;;;4944389;29;20090;-68
2022/08/05 08:10:34;;;;;;;7.88;3.70;;;24.20;87.70;;;;;;4942059;29;20035;-67
2022/08/05 08:13:00;;;;;;;6.78;3.60;;;24.20;87.60;;;;;;4937838;28;20055;-68
2022/08/05 08:15:26;;;;;;;6.13;3.50;;;24.20;87.90;;;;;;4947778;29;20051;-68
2022/08/05 08:17:52;;;;;;;5.15;3.40;;;24.30;88.30;;;;;;4947178;29;20776;-68
2022/08/05 08:20:18;;;;;;;4.22;3.28;;;24.50;88.30;;;;;;4943895;28;20042;-69
2022/08/05 08:22:53;;;;;;;5.45;3.40;;;24.60;88.20;;;;;;4944415;28;20035;-68
2022/08/05 08:25:19;;;;;;;5.70;3.30;;;24.70;87.10;;;;;;4956747;28;20126;-67
2022/08/05 08:27:45;;;;;;;10.48;4.05;;;24.80;85.90;;;;;;4942233;29;20065;-68
2022/08/05 08:30:11;;;;;;;4.38;3.10;;;24.80;86.40;;;;;;4939048;29;20032;-68
2022/08/05 08:32:37;;;;;;;6.68;3.50;;;24.80;86.10;;;;;;4944282;28;20078;-68
2022/08/05 08:35:03;;;;;;;5.70;3.10;;;24.80;85.60;;;;;;4947339;28;20439;-67
2022/08/05 08:37:29;;;;;;;5.95;3.80;;;24.80;85.40;;;;;;4945955;29;20037;-68
2022/08/05 08:39:55;;;;;;;5.47;3.70;;;24.80;85.40;;;;;;4944980;29;20039;-69
2022/08/05 08:42:21;;;;;;;6.25;3.22;;;24.80;85.10;;;;;;4942699;29;20040;-68
2022/08/05 08:44:48;;;;;;;5.72;3.58;;;24.80;85.10;;;;;;4942678;28;20054;-68
2022/08/05 08:47:14;;;;;;;5.32;3.17;;;24.70;85.00;;;;;;4939818;29;20067;-68
2022/08/05 08:49:44;;;;;;;4.40;3.20;;;24.70;85.30;;;;;;4940457;29;20758;-68
2022/08/05 08:52:21;;;;;;;4.15;3.22;;;24.70;85.30;;;;;;4944652;28;20058;-68
2022/08/05 08:54:47;;;;;;;4.97;3.58;;;24.70;85.50;;;;;;4946777;29;20115;-68
2022/08/05 08:57:13;;;;;;;4.90;3.65;;;24.70;85.40;;;;;;4944535;28;20630;-68
2022/08/05 08:59:39;;;;;;;6.90;3.80;;;24.70;85.40;;;;;;4944436;29;20023;-68
2022/08/05 09:02:06;;;;;;;4.43;3.45;;;24.70;85.30;;;;;;4941230;28;20100;-68
2022/08/05 09:04:38;;;;;;;6.90;3.95;;;24.70;85.40;;;;;;4941192;29;20038;-68
2022/08/05 09:07:05;;;;;;;7.32;3.50;;;24.80;85.60;;;;;;4938457;28;20086;-68
2022/08/05 09:09:34;;;;;;;5.55;3.45;;;25.00;85.00;;;;;;4940246;29;20151;-67
2022/08/05 09:12:07;;;;;;;6.55;3.50;;;25.00;84.70;;;;;;4943585;28;20089;-68
2022/08/05 09:14:34;;;;;;;4.60;3.67;;;25.10;84.50;;;;;;4939098;29;20031;-68
2022/08/05 09:17:01;;;;;;;5.75;3.67;;;25.10;84.00;;;;;;4944023;28;20031;-68
2022/08/05 09:19:27;;;;;;;8.10;4.13;;;25.10;83.40;;;;;;4943236;29;20069;-68
2022/08/05 09:21:53;;;;;;;5.80;3.00;;;25.10;83.20;;;;;;4941605;28;20066;-68
2022/08/05 09:24:18;;;;;;;4.13;2.90;;;25.10;82.50;;;;;;4940339;29;20035;-68
2022/08/05 09:26:52;;;;;;;3.80;2.92;;;25.00;82.60;;;;;;4939791;29;20037;-68
2022/08/05 09:29:18;;;;;;;5.43;3.03;;;25.00;83.20;;;;;;4941735;29;20035;-68
2022/08/05 09:31:59;;;;;;;3.88;3.20;;;24.90;83.50;;;;;;4945363;28;20142;-68
2022/08/05 09:34:25;;;;;;;3.53;2.83;;;24.90;84.00;;;;;;4944635;29;20090;-67
2022/08/05 09:36:53;;;;;;;3.40;3.00;;;24.80;84.00;;;;;;4944177;29;20803;-69
2022/08/05 09:39:19;;;;;;;6.93;3.40;;;24.80;84.30;;;;;;4943745;29;20784;-68
2022/08/05 09:41:55;;;;;;;8.10;3.30;;;24.80;84.40;;;;;;4941469;28;20031;-67
2022/08/05 09:44:37;;;;;;;4.18;3.35;;;24.70;84.60;;;;;;4939415;29;20091;-68
2022/08/05 09:47:34;;;;;;;5.00;3.47;;;24.70;85.60;;;;;;4936384;29;20561;-68
2022/08/05 09:50:00;;;;;;;3.83;2.88;;;24.70;85.90;;;;;;4941852;29;20047;-69
2022/08/05 09:52:28;;;;;;;4.32;3.10;;;24.70;85.60;;;;;;4949678;28;20764;-68
2022/08/05 09:55:05;;;;;;;4.82;3.17;;;24.60;85.90;;;;;;4941751;29;20692;-69
2022/08/05 09:57:36;;;;;;;5.13;3.53;;;24.60;85.70;;;;;;4941375;29;20031;-68
2022/08/05 10:00:13;;;;;;;4.28;3.45;;;24.70;85.90;;;;;;4938081;29;20047;-69
2022/08/05 10:02:47;;;;;;;4.65;3.08;;;24.80;85.10;;;;;;4936781;29;20090;-68
2022/08/05 10:05:17;;;;;;;4.45;3.63;;;24.80;84.30;;;;;;4939806;28;20040;-68
2022/08/05 10:07:53;;;;;;;3.50;3.20;;;24.80;84.20;;;;;;4942954;29;20503;-68
2022/08/05 10:10:22;;;;;;;7.03;3.92;;;24.80;84.70;;;;;;4945410;28;20036;-68
2022/08/05 10:12:57;;;;;;;5.65;3.35;;;24.80;85.50;;;;;;4944403;28;20028;-68
2022/08/05 10:15:32;;;;;;;3.83;3.38;;;24.90;86.90;;;;;;4942166;29;20042;-68
2022/08/05 10:18:21;;;;;;;5.63;3.95;;;24.90;87.00;;;;;;4940454;28;20043;-68
2022/08/05 10:20:56;;;;;;;6.30;4.90;;;25.00;87.20;;;;;;4937225;29;20031;-68
2022/08/05 10:23:31;;;;;;;6.03;4.53;;;25.10;86.70;;;;;;4938251;29;20040;-68
2022/08/05 10:25:59;;;;;;;4.45;3.90;;;25.20;85.40;;;;;;4938995;29;20399;-68
2022/08/05 10:28:26;;;;;;;6.43;4.50;;;25.30;85.20;;;;;;4944720;29;20229;-68
2022/08/05 10:30:52;;;;;;;5.55;4.93;;;25.30;85.40;;;;;;4944538;29;20042;-67
2022/08/05 10:33:22;;;;;;;7.47;6.40;;;25.50;85.20;;;;;;4941358;28;20508;-68
2022/08/05 10:35:49;;;;;;;6.93;5.00;;;25.70;85.50;;;;;;4940794;29;20047;-67
2022/08/05 10:38:17;;;;;;;5.57;4.90;;;25.80;83.30;;;;;;4943742;28;20062;-68
2022/08/05 10:40:48;;;;;;;5.72;3.78;;;25.90;82.40;;;;;;4943057;29;20031;-68
2022/08/05 10:43:32;;;;;;;4.07;3.67;;;26.00;81.20;;;;;;4936125;29;20131;-68
2022/08/05 10:46:01;;;;;;;4.20;3.60;;;26.00;80.40;;;;;;4946284;29;20137;-68
2022/08/05 10:48:44;;;;;;;4.03;2.55;;;26.10;80.00;;;;;;4944066;29;20031;-68
2022/08/05 10:51:12;;;;;;;4.07;2.70;;;26.20;76.50;;;;;;4942073;29;20039;-68
2022/08/05 10:53:53;;;;;;;3.67;2.83;;;26.40;77.40;;;;;;4942599;28;20385;-67
2022/08/05 10:56:35;;;;;;;5.72;2.85;;;26.50;76.80;;;;;;4940006;29;20529;-68
2022/08/05 10:59:04;;;;;;;3.00;2.25;;;26.50;75.40;;;;;;4937749;29;20043;-67
2022/08/05 11:01:37;;;;;;;3.28;2.38;;;26.60;75.60;;;;;;4938587;29;20773;-68
2022/08/05 11:04:09;;;;;;;3.38;2.58;;;26.70;75.60;;;;;;4942586;29;20047;-68
2022/08/05 11:07:03;;;;;;;4.20;2.63;;;26.90;75.80;;;;;;4945021;28;20922;-67
2022/08/05 11:09:41;;;;;;;5.75;3.30;;;27.00;75.50;;;;;;4943244;29;20761;-68
2022/08/05 11:12:45;;;;;;;4.00;3.00;;;27.20;74.30;;;;;;4940244;29;20114;-68
2022/08/05 11:15:21;;;;;;;6.18;3.10;;;27.40;74.10;;;;;;4941024;29;20107;-68
2022/08/05 11:17:49;;;;;;;6.03;2.97;;;27.30;74.00;;;;;;4939567;29;20046;-68
2022/08/05 11:20:31;;;;;;;4.30;2.78;;;27.30;73.80;;;;;;4936996;29;20118;-68
2022/08/05 11:22:57;;;;;;;3.53;2.60;;;27.30;72.70;;;;;;4941742;28;20522;-67
2022/08/05 11:25:30;;;;;;;4.00;2.50;;;27.30;71.80;;;;;;4944609;29;20048;-68
2022/08/05 11:28:15;;;;;;;2.75;2.17;;;27.30;71.80;;;;;;4941587;29;20078;-68
2022/08/05 11:30:56;;;;;;;;;;;27.50;71.60;;;;;;4937907;29;20444;-68
2022/08/05 11:33:34;;;;;;;4.15;2.28;;;27.70;71.80;;;;;;4940010;29;19961;-68
2022/08/05 11:36:02;;;;;;;2.40;2.03;;;27.80;70.00;;;;;;4938178;28;20086;-68
2022/08/05 11:38:42;;;;;;;2.55;1.92;;;28.00;67.70;;;;;;4938786;29;20028;-68
2022/08/05 11:41:21;;;;;;;6.65;2.38;;;28.00;67.20;;;;;;4939028;29;20035;-68
2022/08/05 11:44:00;;;;;;;2.67;2.33;;;28.10;67.50;;;;;;4944796;28;20035;-68
2022/08/05 11:46:32;;;;;;;4.50;1.70;;;28.20;67.20;;;;;;4942988;29;20066;-68
2022/08/05 11:48:59;;;;;;;5.40;1.98;;;28.20;66.40;;;;;;4943173;28;20031;-68
2022/08/05 11:51:26;;;;;;;2.95;1.80;;;28.20;66.80;;;;;;4940308;29;20630;-68
2022/08/05 11:53:53;;;;;;;2.67;2.45;;;28.30;65.30;;;;;;4939195;29;20039;-68
2022/08/05 11:56:20;;;;;;;2.80;2.05;;;28.30;66.40;;;;;;4940768;28;20082;-68
2022/08/05 11:58:47;;;;;;;6.57;2.70;;;28.30;66.60;;;;;;4940645;28;20035;-68
2022/08/05 12:01:14;;;;;;;3.47;2.17;;;28.50;64.80;;;;;;4946210;29;20031;-68
2022/08/05 12:03:50;;;;;;;2.95;2.00;;;28.50;63.90;;;;;;4947525;28;20785;-69
2022/08/05 12:06:18;;;;;;;3.80;2.10;;;28.60;64.00;;;;;;4945068;28;20827;-68
2022/08/05 12:08:50;;;;;;;3.28;2.10;;;28.70;64.40;;;;;;4945520;29;20150;-68
2022/08/05 12:11:21;;;;;;;4.00;2.00;;;28.80;64.10;;;;;;4942220;29;20040;-68
2022/08/05 12:13:57;;;;;;;3.25;2.30;;;28.80;64.50;;;;;;4942577;28;20035;-68
2022/08/05 12:16:25;;;;;;;3.25;2.20;;;28.90;63.80;;;;;;4940886;29;20249;-68
2022/08/05 12:18:51;;;;;;;4.93;2.13;;;28.90;63.30;;;;;;4941705;29;20130;-69
2022/08/05 12:21:34;;;;;;;2.75;1.95;;;28.90;63.80;;;;;;4947164;28;20039;-69
2022/08/05 12:24:05;;;;;;;3.05;1.88;;;28.90;63.30;;;;;;4943816;29;20031;-68
2022/08/05 12:26:40;;;;;;;3.47;1.80;;;28.80;61.90;;;;;;4942430;29;20040;-68
2022/08/05 12:29:09;;;;;;;3.40;1.83;;;28.80;62.60;;;;;;4942151;29;20086;-68
2022/08/05 12:31:36;;;;;;;5.88;2.33;;;28.90;63.40;;;;;;4943330;29;20035;-69
2022/08/05 12:34:04;;;;;;;2.53;1.85;;;29.00;63.10;;;;;;4945293;28;20070;-68
2022/08/05 12:36:31;;;;;;;1.98;1.75;;;29.00;62.30;;;;;;4939695;28;20027;-68
2022/08/05 12:38:58;;;;;;;2.38;1.70;;;29.10;62.90;;;;;;4943118;28;20042;-68
2022/08/05 12:41:30;;;;;;;3.53;1.90;;;29.30;61.60;;;;;;4944622;29;20388;-69
2022/08/05 12:44:01;;;;;;;1.88;1.77;;;29.40;62.00;;;;;;4942559;29;20046;-69
2022/08/05 12:46:31;;;;;;;2.58;1.60;;;29.50;60.30;;;;;;4943547;29;20039;-69
2022/08/05 12:49:04;;;;;;;10.52;1.52;;;29.50;58.70;;;;;;4941418;29;20062;-68
2022/08/05 12:51:31;;;;;;;4.00;1.73;;;29.50;57.90;;;;;;4939621;29;20108;-68
2022/08/05 12:54:02;;;;;;;3.90;2.17;;;29.60;58.00;;;;;;4941023;28;20796;-68
2022/08/05 12:56:29;;;;;;;3.38;2.10;;;29.70;58.80;;;;;;4944137;28;20027;-68
2022/08/05 12:59:14;;;;;;;2.28;1.85;;;29.80;58.50;;;;;;4947369;29;20043;-68
2022/08/05 13:01:53;;;;;;;3.58;2.00;;;29.80;58.60;;;;;;4948578;28;20031;-69